Aviation Digital Data Service (ADDS)

Output produced by METARs form (1302 UTC 20 October 2014)
found at http://aviationweather.gov/adds/metars/
 
KCON 201120Z 2012/2112 32005KT P6SM SCT060 
     FM201300 27005KT P6SM FEW050 BKN250 
     FM210000 00000KT P6SM OVC250